createdAt,value
2022-12-11T00:02:06.953Z,99442.08
2022-12-11T00:05:13.247Z,99447.66
2022-12-11T00:08:19.345Z,99449.35
2022-12-11T00:11:27.011Z,99455.09
2022-12-11T00:14:31.908Z,99444.17
2022-12-11T00:17:38.349Z,99450.91
2022-12-11T00:20:44.142Z,99443.61
2022-12-11T00:23:50.612Z,99442.25
2022-12-11T00:26:57.292Z,99440.31
2022-12-11T00:30:04.085Z,99440.67
2022-12-11T00:33:10.810Z,99433.97
2022-12-11T00:36:17.324Z,99434.99
2022-12-11T00:39:22.788Z,99440.23
2022-12-11T00:42:21.885Z,99434.87
2022-12-11T00:45:22.018Z,99431.84
2022-12-11T00:48:28.785Z,99429.47
2022-12-11T00:51:34.520Z,99427.86
2022-12-11T00:54:40.213Z,99421.40
2022-12-11T00:57:46.383Z,99420.80
2022-12-11T01:00:52.399Z,99425.09
2022-12-11T01:03:59.045Z,99420.52
2022-12-11T01:07:05.458Z,99417.89
2022-12-11T01:10:29.096Z,99416.05
2022-12-11T01:13:36.111Z,99409.00
2022-12-11T01:16:41.078Z,99414.69
2022-12-11T01:19:46.866Z,99412.70
2022-12-11T01:22:53.285Z,99404.20
2022-12-11T01:25:59.146Z,99402.52
2022-12-11T01:29:05.785Z,99394.92
2022-12-11T01:32:12.497Z,99394.02
2022-12-11T01:35:21.959Z,99390.20
2022-12-11T01:38:27.305Z,99392.48
2022-12-11T01:41:33.214Z,99389.28
2022-12-11T01:44:43.765Z,99387.99
2022-12-11T01:47:49.737Z,99383.38
2022-12-11T01:51:11.580Z,99374.82
2022-12-11T01:54:21.043Z,99374.27
2022-12-11T01:57:27.243Z,99379.05
2022-12-11T02:00:33.771Z,99376.45
2022-12-11T02:03:39.634Z,99376.72
2022-12-11T02:06:53.482Z,99379.20
2022-12-11T02:10:00.042Z,99380.18
2022-12-11T02:13:24.405Z,99387.12
2022-12-11T02:16:38.273Z,99384.85
2022-12-11T02:20:15.702Z,99376.80
2022-12-11T02:23:41.540Z,99374.82
2022-12-11T02:27:06.879Z,99382.77
2022-12-11T02:30:20.826Z,99381.70
2022-12-11T02:33:26.694Z,99386.98
2022-12-11T02:36:32.057Z,99391.59
2022-12-11T02:39:37.472Z,99389.52
2022-12-11T02:42:45.351Z,99387.75
2022-12-11T02:45:51.189Z,99386.84
2022-12-11T02:48:57.795Z,99388.91
2022-12-11T02:52:03.636Z,99390.81
2022-12-11T02:55:10.722Z,99388.31
2022-12-11T02:58:24.463Z,99391.27
2022-12-11T03:01:31.740Z,99387.16
2022-12-11T03:04:37.113Z,99391.44
2022-12-11T03:07:47.985Z,99391.78
2022-12-11T03:10:54.240Z,99391.55
2022-12-11T03:14:00.810Z,99391.05
2022-12-11T03:17:33.749Z,99383.77
2022-12-11T03:21:04.640Z,99379.86
2022-12-11T03:24:39.634Z,99381.95
2022-12-11T03:28:06.082Z,99383.63
2022-12-11T03:31:12.206Z,99381.86
2022-12-11T03:34:14.282Z,99383.53
2022-12-11T03:37:19.922Z,99374.73
2022-12-11T03:40:28.731Z,99375.13
2022-12-11T03:43:33.438Z,99384.60
2022-12-11T03:46:44.962Z,99383.61
2022-12-11T03:49:56.474Z,99378.19
2022-12-11T03:53:03.167Z,99369.92
2022-12-11T03:56:10.669Z,99369.68
2022-12-11T03:59:09.677Z,99370.92
2022-12-11T04:02:17.830Z,99370.77
2022-12-11T04:05:23.912Z,99370.54
2022-12-11T04:08:31.514Z,99362.80
2022-12-11T04:11:43.121Z,99372.00
2022-12-11T04:15:08.703Z,99369.92
2022-12-11T04:18:34.709Z,99369.68
2022-12-11T04:21:57.283Z,99369.30
2022-12-11T04:25:04.412Z,99364.78
2022-12-11T04:28:09.510Z,99357.45
2022-12-11T04:31:15.449Z,99362.40
2022-12-11T04:34:20.912Z,99355.44
2022-12-11T04:37:27.559Z,99357.59
2022-12-11T04:40:32.971Z,99354.53
2022-12-11T04:43:38.579Z,99351.30
2022-12-11T04:46:44.637Z,99350.84
2022-12-11T04:49:44.306Z,99359.12
2022-12-11T04:52:50.360Z,99355.52
2022-12-11T04:55:56.199Z,99354.05
2022-12-11T04:59:02.708Z,99349.17
2022-12-11T05:02:09.870Z,99354.03
2022-12-11T05:05:18.023Z,99354.05
2022-12-11T05:08:23.737Z,99349.02
2022-12-11T05:11:29.438Z,99350.70
2022-12-11T05:14:34.279Z,99349.30
2022-12-11T05:17:40.192Z,99358.98
2022-12-11T05:20:46.321Z,99355.29
2022-12-11T05:23:52.180Z,99361.95
2022-12-11T05:26:57.989Z,99359.72
2022-12-11T05:30:04.766Z,99355.91
2022-12-11T05:33:11.515Z,99358.83
2022-12-11T05:36:17.269Z,99367.27
2022-12-11T05:39:23.639Z,99363.66
2022-12-11T05:42:29.395Z,99358.95
2022-12-11T05:45:35.248Z,99365.58
2022-12-11T05:48:41.484Z,99350.06
2022-12-11T05:51:50.083Z,99356.12
2022-12-11T05:54:56.473Z,99356.22
2022-12-11T05:58:03.304Z,99356.80
2022-12-11T06:01:09.390Z,99358.73
2022-12-11T06:04:17.350Z,99360.36
2022-12-11T06:07:25.410Z,99363.48
2022-12-11T06:10:30.970Z,99367.09
2022-12-11T06:13:36.483Z,99374.57
2022-12-11T06:16:41.983Z,99366.16
2022-12-11T06:19:48.159Z,99374.34
2022-12-11T06:22:54.097Z,99365.45
2022-12-11T06:25:59.339Z,99370.12
2022-12-11T06:29:08.984Z,99367.77
2022-12-11T06:32:11.800Z,99371.01
2022-12-11T06:35:16.560Z,99363.54
2022-12-11T06:38:21.973Z,99373.81
2022-12-11T06:41:27.018Z,99361.34
2022-12-11T06:44:32.776Z,99355.89
2022-12-11T06:47:41.459Z,99356.73
2022-12-11T06:50:47.107Z,99351.92
2022-12-11T06:53:52.622Z,99354.95
2022-12-11T06:56:58.429Z,99354.52
2022-12-11T07:00:03.488Z,99358.25
2022-12-11T07:03:09.580Z,99365.22
2022-12-11T07:06:10.367Z,99350.16
2022-12-11T07:09:22.160Z,99344.75
2022-12-11T07:12:27.760Z,99354.01
2022-12-11T07:15:37.713Z,99357.59
2022-12-11T07:18:42.335Z,99357.00
2022-12-11T07:21:48.261Z,99349.77
2022-12-11T07:24:54.378Z,99344.34
2022-12-11T07:27:59.313Z,99334.91
2022-12-11T07:31:05.547Z,99343.36
2022-12-11T07:34:17.026Z,99336.87
2022-12-11T07:37:22.409Z,99338.43
2022-12-11T07:40:29.758Z,99334.37
2022-12-11T07:43:34.794Z,99329.86
2022-12-11T07:46:43.677Z,99334.00
2022-12-11T07:49:49.612Z,99316.48
2022-12-11T07:52:55.452Z,99316.75
2022-12-11T07:56:04.245Z,99314.71
2022-12-11T07:59:08.768Z,99301.91
2022-12-11T08:02:15.079Z,99292.13
2022-12-11T08:05:21.438Z,99295.59
2022-12-11T08:08:20.362Z,99291.75
2022-12-11T08:11:27.678Z,99302.23
2022-12-11T08:14:33.190Z,99294.72
2022-12-11T08:17:40.184Z,99282.44
2022-12-11T08:20:45.928Z,99315.37
2022-12-11T08:23:52.516Z,99318.88
2022-12-11T08:26:58.665Z,99314.37
2022-12-11T08:30:06.085Z,99311.97
2022-12-11T08:33:12.457Z,99311.11
2022-12-11T08:36:20.588Z,99309.60
2022-12-11T08:39:26.905Z,99307.97
2022-12-11T08:42:33.337Z,99311.52
2022-12-11T08:45:40.141Z,99305.55
2022-12-11T08:48:45.485Z,99299.53
2022-12-11T08:51:50.971Z,99301.36
2022-12-11T08:54:57.008Z,99309.14
2022-12-11T08:58:03.151Z,99299.52
2022-12-11T09:01:09.958Z,99287.78
2022-12-11T09:04:15.535Z,99296.05
2022-12-11T09:07:22.073Z,99272.66
2022-12-11T09:10:28.059Z,99274.98
2022-12-11T09:13:34.714Z,99270.13
2022-12-11T09:16:42.802Z,99258.48
2022-12-11T09:19:48.684Z,99271.02
2022-12-11T09:22:48.302Z,99262.54
2022-12-11T09:25:56.363Z,99245.84
2022-12-11T09:29:02.570Z,99254.47
2022-12-11T09:32:08.801Z,99260.03
2022-12-11T09:35:14.581Z,99253.36
2022-12-11T09:38:21.609Z,99236.47
2022-12-11T09:41:55.183Z,99243.23
2022-12-11T09:45:09.371Z,99238.17
2022-12-11T09:48:08.487Z,99231.66
2022-12-11T09:51:14.224Z,99222.55
2022-12-11T09:54:20.658Z,99229.98
2022-12-11T09:57:42.946Z,99214.33
2022-12-11T10:01:02.168Z,99202.66
2022-12-11T10:04:22.443Z,99208.09
2022-12-11T10:07:42.403Z,99215.02
2022-12-11T10:11:21.253Z,99202.35
2022-12-11T10:15:12.432Z,99184.65
2022-12-11T10:18:22.064Z,99182.55
2022-12-11T10:21:28.415Z,99188.95
2022-12-11T10:27:51.100Z,99171.88
2022-12-11T10:31:08.347Z,99180.65
2022-12-11T10:34:27.068Z,99168.42
2022-12-11T10:37:32.548Z,99167.22
2022-12-11T10:40:40.052Z,99157.91
2022-12-11T10:43:54.761Z,99157.92
2022-12-11T10:47:00.834Z,99157.63
2022-12-11T10:50:14.676Z,99160.72
2022-12-11T10:53:20.186Z,99149.88
2022-12-11T10:56:24.696Z,99147.84
2022-12-11T10:59:47.410Z,99145.51
2022-12-11T11:03:09.662Z,99135.78
2022-12-11T11:06:30.746Z,99136.33
2022-12-11T11:09:48.788Z,99140.95
2022-12-11T11:13:00.106Z,99137.22
2022-12-11T11:16:21.449Z,99130.38
2022-12-11T11:19:40.974Z,99132.56
2022-12-11T11:22:28.234Z,99129.48
2022-12-11T11:25:31.174Z,99131.35
2022-12-11T11:28:27.749Z,99137.83
2022-12-11T11:31:33.035Z,99133.16
2022-12-11T11:34:38.242Z,99140.89
2022-12-11T11:37:47.997Z,99125.23
2022-12-11T11:41:14.760Z,99144.07
2022-12-11T11:44:12.758Z,99133.03
2022-12-11T11:47:23.184Z,99136.98
2022-12-11T11:50:37.010Z,99137.42
2022-12-11T11:53:49.498Z,99134.95
2022-12-11T11:56:55.779Z,99145.03
2022-12-11T12:00:10.003Z,99136.55
2022-12-11T12:03:17.893Z,99142.69
2022-12-11T12:06:59.615Z,99133.86
2022-12-11T12:10:33.469Z,99128.24
2022-12-11T12:14:50.507Z,99126.14
2022-12-11T12:17:36.381Z,99134.29
2022-12-11T12:21:10.755Z,99125.53
2022-12-11T12:24:40.183Z,99128.22
2022-12-11T12:28:07.151Z,99122.33
2022-12-11T12:31:27.095Z,99122.24
2022-12-11T12:34:51.062Z,99120.62
2022-12-11T12:38:20.400Z,99116.36
2022-12-11T12:42:05.640Z,99118.41
2022-12-11T12:45:27.392Z,99110.50
2022-12-11T12:48:34.201Z,99103.28
2022-12-11T12:51:33.318Z,99102.66
2022-12-11T12:54:30.187Z,99100.58
2022-12-11T12:57:35.981Z,99089.22
2022-12-11T13:00:56.480Z,99091.00
2022-12-11T13:04:39.590Z,99089.08
2022-12-11T13:07:40.146Z,99080.16
2022-12-11T13:10:52.058Z,99067.81
2022-12-11T13:14:02.678Z,99058.36
2022-12-11T13:17:09.541Z,99065.44
2022-12-11T13:20:31.174Z,99060.70
2022-12-11T13:23:47.966Z,99061.64
2022-12-11T13:26:54.619Z,99058.80
2022-12-11T13:30:01.061Z,99054.77
2022-12-11T13:33:23.324Z,99055.30
2022-12-11T13:36:35.038Z,99059.72
2022-12-11T13:39:52.109Z,99055.34
2022-12-11T13:43:16.106Z,99057.34
2022-12-11T13:46:24.442Z,99059.94
2022-12-11T13:49:44.033Z,99063.17
2022-12-11T13:52:50.653Z,99056.48
2022-12-11T13:55:56.389Z,99064.88
2022-12-11T13:59:03.490Z,99059.31
2022-12-11T14:02:13.340Z,99064.88
2022-12-11T14:05:22.632Z,99052.50
2022-12-11T14:08:31.474Z,99057.45
2022-12-11T14:11:41.939Z,99044.72
2022-12-11T14:14:58.566Z,99055.70
2022-12-11T14:18:04.046Z,99052.65
2022-12-11T14:21:14.753Z,99045.19
2022-12-11T14:24:22.888Z,99035.49
2022-12-11T14:27:31.316Z,99045.44
2022-12-11T14:30:44.053Z,99042.02
2022-12-11T14:33:55.620Z,99043.17
2022-12-11T14:37:02.141Z,99034.44
2022-12-11T14:40:27.324Z,99038.33
2022-12-11T14:43:40.688Z,99025.72
2022-12-11T14:47:01.458Z,99020.69
2022-12-11T14:50:44.193Z,99023.53
2022-12-11T14:53:52.678Z,99022.48
2022-12-11T14:56:59.108Z,99034.75
2022-12-11T15:00:06.231Z,99010.55
2022-12-11T15:03:28.303Z,99011.63
2022-12-11T15:06:44.461Z,99007.88
2022-12-11T15:09:53.274Z,99014.27
2022-12-11T15:13:00.900Z,99029.91
2022-12-11T15:16:07.762Z,99033.75
2022-12-11T15:19:12.965Z,99021.23
2022-12-11T15:22:23.440Z,99032.70
2022-12-11T15:25:40.480Z,99022.19
2022-12-11T15:28:50.435Z,99025.49
2022-12-11T15:31:50.864Z,99018.44
2022-12-11T15:35:05.846Z,99021.43
2022-12-11T15:38:12.471Z,99007.78
2022-12-11T15:41:17.536Z,99013.95
2022-12-11T15:44:25.858Z,99011.41
2022-12-11T15:47:32.982Z,99011.29
2022-12-11T15:50:45.161Z,99011.70
2022-12-11T15:53:51.736Z,99010.63
2022-12-11T15:56:57.660Z,99024.08
2022-12-11T16:00:04.512Z,99001.34
2022-12-11T16:03:10.357Z,99012.53
2022-12-11T16:06:17.293Z,99005.69
2022-12-11T16:09:23.903Z,99015.30
2022-12-11T16:12:30.271Z,99003.72
2022-12-11T16:15:35.942Z,99001.09
2022-12-11T16:18:41.520Z,99008.73
2022-12-11T16:21:46.771Z,98987.82
2022-12-11T16:24:53.414Z,99005.29
2022-12-11T16:27:59.146Z,99011.53
2022-12-11T16:31:05.331Z,99007.16
2022-12-11T16:34:11.161Z,98986.40
2022-12-11T16:37:19.737Z,99000.49
2022-12-11T16:40:26.145Z,98988.19
2022-12-11T16:43:31.993Z,98988.62
2022-12-11T16:46:37.829Z,98992.36
2022-12-11T16:49:43.921Z,99001.29
2022-12-11T16:52:49.546Z,98976.18
2022-12-11T16:55:55.182Z,98969.67
2022-12-11T16:59:14.215Z,98975.13
2022-12-11T17:02:20.993Z,98970.74
2022-12-11T17:05:27.906Z,98964.44
2022-12-11T17:08:33.649Z,98963.44
2022-12-11T17:11:39.044Z,98951.08
2022-12-11T17:14:44.658Z,98961.67
2022-12-11T17:17:53.356Z,98949.79
2022-12-11T17:20:59.342Z,98958.04
2022-12-11T17:24:06.412Z,98958.50
2022-12-11T17:27:11.621Z,98950.30
2022-12-11T17:30:17.698Z,98958.27
2022-12-11T17:33:24.581Z,98927.75
2022-12-11T17:36:34.258Z,98925.87
2022-12-11T17:39:40.246Z,98937.73
2022-12-11T17:42:45.832Z,98925.67
2022-12-11T17:45:59.943Z,98940.62
2022-12-11T17:49:07.222Z,98904.19
2022-12-11T17:52:12.497Z,98928.81
2022-12-11T17:55:19.606Z,98927.80
2022-12-11T17:58:28.748Z,98922.92
2022-12-11T18:01:35.056Z,98941.18
2022-12-11T18:04:40.830Z,98936.89
2022-12-11T18:07:57.444Z,98953.11
2022-12-11T18:10:59.711Z,98969.39
2022-12-11T18:14:06.458Z,98978.89
2022-12-11T18:17:13.048Z,98983.52
2022-12-11T18:20:18.613Z,98982.30
2022-12-11T18:23:25.489Z,98978.31
2022-12-11T18:26:33.269Z,98984.39
2022-12-11T18:29:39.274Z,98976.72
2022-12-11T18:32:45.402Z,98968.50
2022-12-11T18:35:50.726Z,98978.05
2022-12-11T18:38:57.769Z,98967.98
2022-12-11T18:42:31.552Z,98974.06
2022-12-11T18:45:11.413Z,98978.80
2022-12-11T18:48:16.580Z,98964.81
2022-12-11T18:51:17.885Z,98965.19
2022-12-11T18:54:24.088Z,98960.48
2022-12-11T18:57:23.095Z,98968.11
2022-12-11T22:16:38.984Z,98959.84
2022-12-11T22:19:46.107Z,98953.70
2022-12-11T22:22:51.748Z,98949.35
2022-12-11T22:25:57.464Z,98954.16
2022-12-11T22:29:02.654Z,98966.01
2022-12-11T22:32:07.563Z,98965.05
2022-12-11T22:35:15.538Z,98962.98
2022-12-11T22:38:20.887Z,98956.45
2022-12-11T22:41:38.979Z,98957.09
2022-12-11T22:44:44.654Z,98960.12
2022-12-11T22:47:50.452Z,98964.00
2022-12-11T22:50:56.227Z,98947.09
2022-12-11T22:54:01.525Z,98953.10
2022-12-11T22:57:07.293Z,98964.10
2022-12-11T23:00:12.277Z,98947.59
2022-12-11T23:03:16.962Z,98954.37
2022-12-11T23:06:22.149Z,98938.50
2022-12-11T23:09:21.130Z,98924.37
2022-12-11T23:12:20.130Z,98936.73
2022-12-11T23:15:25.648Z,98931.31
2022-12-11T23:18:31.069Z,98931.43
2022-12-11T23:21:37.942Z,98923.80
2022-12-11T23:24:43.478Z,98923.38
2022-12-11T23:27:49.029Z,98923.07
2022-12-11T23:30:55.596Z,98916.79
2022-12-11T23:34:01.591Z,98914.66
2022-12-11T23:37:07.915Z,98899.28
2022-12-11T23:40:13.776Z,98910.95
2022-12-11T23:43:20.277Z,98916.38
2022-12-11T23:46:30.015Z,98901.03
2022-12-11T23:49:34.198Z,98911.03
2022-12-11T23:52:40.461Z,98919.29
2022-12-11T23:55:40.635Z,98912.38
2022-12-11T23:58:49.195Z,98900.81
